Time;durP1;ratioP1;P1;durP2;ratioP2;P2;SDS_P1;SDS_P2;PMS_P1;PMS_P2;Temp;Humidity;BMP_temperature;BMP_pressure;BME280_temperature;BME280_humidity;BME280_pressure;Samples;Min_cycle;Max_cycle;Signal;HPM_P1;HPM_P2
2021/04/01 00:00:51;;;;;;;52.53;31.35;;;;;;;9.95;87.61;99771.72;3554130;27;20047;-51
2021/04/01 00:02:32;;;;;;;58.83;33.97;;;;;;;9.91;87.63;99778.56;3550084;27;20422;-51
2021/04/01 00:04:14;;;;;;;57.90;32.75;;;;;;;9.88;87.81;99777.63;3552278;27;20047;-47
2021/04/01 00:05:55;;;;;;;58.30;32.67;;;;;;;9.85;88.21;99770.66;3550914;27;20515;-48
2021/04/01 00:07:37;;;;;;;59.38;33.88;;;;;;;9.81;88.01;99770.59;3551362;27;20415;-47
2021/04/01 00:09:19;;;;;;;61.42;33.97;;;;;;;9.79;87.96;99767.06;3566157;27;20558;-47
2021/04/01 00:11:00;;;;;;;55.25;32.83;;;;;;;9.76;88.20;99764.44;3554419;27;20130;-46
2021/04/01 00:12:42;;;;;;;60.47;34.20;;;;;;;9.73;88.69;99765.25;3553528;27;20479;-47
2021/04/01 00:14:25;;;;;;;54.35;31.60;;;;;;;9.70;88.26;99766.06;3548563;27;20054;-48
2021/04/01 00:16:06;;;;;;;46.88;28.50;;;;;;;9.68;88.50;99757.41;3552116;27;20088;-47
2021/04/01 00:17:50;;;;;;;63.03;33.67;;;;;;;9.69;88.91;99750.50;3551206;27;20042;-47
2021/04/01 00:19:31;;;;;;;60.45;33.83;;;;;;;9.67;89.11;99755.66;3552386;27;20053;-47
2021/04/01 00:21:13;;;;;;;60.00;33.15;;;;;;;9.66;88.83;99750.44;3553522;27;20103;-46
2021/04/01 00:22:55;;;;;;;55.55;32.20;;;;;;;9.64;88.87;99747.81;3549669;27;20069;-48
2021/04/01 00:24:36;;;;;;;57.13;30.50;;;;;;;9.65;89.06;99752.16;3553756;27;20046;-47
2021/04/01 00:26:18;;;;;;;51.47;31.30;;;;;;;9.64;88.99;99744.38;3552124;27;20099;-47
2021/04/01 00:27:59;;;;;;;58.10;31.95;;;;;;;9.64;89.28;99741.78;3551300;27;20503;-47
2021/04/01 00:29:41;;;;;;;57.30;31.98;;;;;;;9.63;89.04;99738.31;3552097;27;20411;-47
2021/04/01 00:31:22;;;;;;;51.78;30.55;;;;;;;9.62;89.01;99736.56;3551036;27;20054;-47
2021/04/01 00:33:04;;;;;;;55.20;31.98;;;;;;;9.61;89.08;99733.94;3552422;27;20137;-47
2021/04/01 00:34:45;;;;;;;53.20;31.27;;;;;;;9.58;89.09;99732.19;3549858;27;20050;-47
2021/04/01 00:36:27;;;;;;;48.63;30.20;;;;;;;9.56;88.90;99733.88;3553501;27;20137;-47
2021/04/01 00:38:09;;;;;;;41.42;26.40;;;;;;;9.55;88.95;99729.53;3549813;27;20077;-47
2021/04/01 00:39:50;;;;;;;51.85;31.05;;;;;;;9.54;88.88;99733.84;3551539;27;20077;-46
2021/04/01 00:41:31;;;;;;;53.55;30.05;;;;;;;9.53;88.86;99731.22;3550765;27;20145;-47
2021/04/01 00:43:13;;;;;;;58.10;33.60;;;;;;;9.48;88.90;99723.34;3551344;27;20111;-46
2021/04/01 00:44:59;;;;;;;47.88;30.13;;;;;;;9.46;88.82;99719.00;3539041;27;20188;-46
2021/04/01 00:46:40;;;;;;;52.88;31.17;;;;;;;9.42;88.99;99722.31;3547804;27;20091;-49
2021/04/01 00:48:22;;;;;;;51.70;29.80;;;;;;;9.39;88.92;99715.38;3553192;27;20461;-47
2021/04/01 00:50:06;;;;;;;50.78;30.23;;;;;;;9.35;88.96;99713.59;3549575;27;20073;-47
2021/04/01 00:51:48;;;;;;;54.75;31.48;;;;;;;9.34;89.25;99717.00;3552042;27;20070;-46
2021/04/01 00:53:30;;;;;;;53.08;30.35;;;;;;;9.31;89.23;99719.53;3551795;27;20504;-46
2021/04/01 00:55:13;;;;;;;55.10;31.40;;;;;;;9.29;89.50;99718.63;3551967;27;20305;-47
2021/04/01 00:56:55;;;;;;;56.13;31.50;;;;;;;9.26;89.57;99716.88;3538915;28;20079;-48
2021/04/01 00:58:36;;;;;;;57.15;30.95;;;;;;;9.24;89.86;99710.78;3545896;27;20274;-47
2021/04/01 01:00:20;;;;;;;53.42;30.98;;;;;;;9.23;89.59;99708.16;3551980;27;20559;-48
2021/04/01 01:02:04;;;;;;;54.97;30.85;;;;;;;9.22;89.46;99711.59;3549854;27;20078;-46
2021/04/01 01:03:45;;;;;;;60.47;32.25;;;;;;;9.20;89.93;99711.56;3550772;27;20047;-47
2021/04/01 01:05:28;;;;;;;62.92;34.97;;;;;;;9.18;89.65;99702.03;3552134;27;20504;-47
2021/04/01 01:07:10;;;;;;;58.47;34.08;;;;;;;9.15;89.58;99698.53;3549306;27;20078;-50
2021/04/01 01:08:52;;;;;;;60.13;33.53;;;;;;;9.15;89.59;99701.13;3552841;27;20530;-47
2021/04/01 01:10:33;;;;;;;64.20;35.90;;;;;;;9.12;90.04;99695.88;3550377;27;20054;-47
2021/04/01 01:12:15;;;;;;;62.33;33.80;;;;;;;9.13;90.04;99700.19;3552591;27;20054;-46
2021/04/01 01:13:56;;;;;;;60.75;34.58;;;;;;;9.11;90.14;99691.53;3547849;27;20567;-48
2021/04/01 01:15:37;;;;;;;57.15;32.85;;;;;;;9.12;90.44;99695.03;3550727;27;20512;-47
2021/04/01 01:17:19;;;;;;;59.50;34.45;;;;;;;9.11;90.44;99693.25;3551294;27;20423;-47
2021/04/01 01:19:00;;;;;;;62.80;35.03;;;;;;;9.09;90.44;99695.81;3549447;27;20074;-47
2021/04/01 01:20:42;;;;;;;61.78;34.45;;;;;;;9.09;90.48;99693.22;3552894;27;20050;-47
2021/04/01 01:22:34;;;;;;;67.10;35.30;;;;;;;9.07;90.33;99689.75;3549344;27;20046;-47
2021/04/01 01:24:17;;;;;;;59.67;33.55;;;;;;;9.05;90.36;99688.84;3551897;27;20050;-47
2021/04/01 01:25:58;;;;;;;60.83;35.07;;;;;;;9.04;90.17;99691.41;3551749;27;20050;-47
2021/04/01 01:27:40;;;;;;;61.58;34.75;;;;;;;9.02;90.46;99688.78;3551873;27;20049;-47
2021/04/01 01:29:22;;;;;;;66.63;35.58;;;;;;;9.01;90.53;99686.16;3551546;27;20062;-47
2021/04/01 01:31:04;;;;;;;63.42;35.90;;;;;;;9.00;90.23;99690.47;3549059;27;20531;-47
2021/04/01 01:32:49;;;;;;;64.97;36.58;;;;;;;8.98;90.23;99684.38;3552782;27;20051;-47
2021/04/01 01:34:30;;;;;;;67.22;37.42;;;;;;;8.97;90.60;99688.66;3549225;27;20051;-47
2021/04/01 01:36:14;;;;;;;55.15;32.25;;;;;;;8.99;90.84;99686.13;3551020;27;20046;-47
2021/04/01 01:37:56;;;;;;;59.65;32.42;;;;;;;8.99;90.58;99675.78;3550222;27;20510;-47
2021/04/01 01:39:39;;;;;;;69.30;37.90;;;;;;;9.00;90.82;99681.84;3551608;27;20039;-47
2021/04/01 01:41:20;;;;;;;58.95;35.08;;;;;;;8.98;90.73;99674.03;3552722;27;20078;-48
2021/04/01 01:43:06;;;;;;;66.38;37.22;;;;;;;8.98;90.63;99685.25;3548992;27;20062;-48
2021/04/01 01:44:47;;;;;;;55.47;31.50;;;;;;;8.98;90.79;99677.50;3552708;27;20079;-46
2021/04/01 01:46:29;;;;;;;70.65;38.35;;;;;;;9.00;91.15;99677.53;3551401;27;20051;-48
2021/04/01 01:48:11;;;;;;;59.28;34.78;;;;;;;9.00;90.62;99674.94;3550484;27;20043;-47
2021/04/01 01:49:52;;;;;;;63.20;35.13;;;;;;;9.00;90.56;99674.94;3551019;27;20054;-47
2021/04/01 01:51:34;;;;;;;63.45;35.08;;;;;;;9.00;90.77;99671.50;3548981;27;20487;-47
2021/04/01 01:53:15;;;;;;;64.72;35.60;;;;;;;8.98;90.52;99671.47;3552594;27;20059;-51
2021/04/01 01:54:57;;;;;;;65.13;36.85;;;;;;;8.96;90.52;99665.38;3549022;27;20100;-51
2021/04/01 01:56:39;;;;;;;62.42;35.22;;;;;;;8.94;90.60;99667.03;3552459;27;20055;-54
2021/04/01 01:58:22;;;;;;;65.95;36.60;;;;;;;8.92;90.65;99654.09;3550005;27;20043;-50
2021/04/01 02:00:06;;;;;;;62.03;34.97;;;;;;;8.89;90.39;99655.75;3550634;27;20102;-48
2021/04/01 02:01:50;;;;;;;68.32;37.22;;;;;;;8.88;90.55;99669.50;3552625;27;20046;-47
2021/04/01 02:03:32;;;;;;;;;;;;;;;8.82;90.59;99662.50;3551600;27;20110;-47
2021/04/01 02:05:13;;;;;;;62.80;34.55;;;;;;;8.79;90.75;99660.72;3552314;27;19974;-47
2021/04/01 02:06:54;;;;;;;69.50;37.90;;;;;;;8.76;90.57;99657.19;3548779;27;20054;-48
2021/04/01 02:08:36;;;;;;;65.60;37.10;;;;;;;8.71;90.51;99657.13;3552037;27;20054;-48
2021/04/01 02:10:18;;;;;;;62.88;35.78;;;;;;;8.68;90.51;99654.47;3551132;27;20050;-47
2021/04/01 02:12:00;;;;;;;72.50;38.72;;;;;;;8.65;90.84;99654.38;3551582;27;20468;-47
2021/04/01 02:13:41;;;;;;;70.35;38.58;;;;;;;8.62;90.93;99658.63;3552152;27;20141;-47
2021/04/01 02:15:24;;;;;;;76.30;41.92;;;;;;;8.58;91.06;99658.56;3551552;27;20093;-47
2021/04/01 02:17:07;;;;;;;71.72;42.95;;;;;;;8.57;90.89;99662.00;3554863;27;20085;-46
2021/04/01 02:18:49;;;;;;;86.85;48.53;;;;;;;8.57;91.05;99661.09;3551189;27;20053;-46
2021/04/01 02:20:30;;;;;;;106.03;56.53;;;;;;;8.57;91.55;99663.69;3554632;27;20047;-47
2021/04/01 02:22:12;;;;;;;106.32;58.05;;;;;;;8.56;91.31;99656.78;3553992;27;20043;-47
2021/04/01 02:23:53;;;;;;;95.63;54.95;;;;;;;8.56;91.39;99660.22;3553717;27;20055;-46
2021/04/01 02:25:35;;;;;;;90.47;52.00;;;;;;;8.55;91.36;99661.09;3554512;27;20115;-48
2021/04/01 02:27:17;;;;;;;84.53;49.47;;;;;;;8.56;91.54;99656.78;3551380;27;20122;-51
2021/04/01 02:28:58;;;;;;;81.38;47.45;;;;;;;8.56;91.53;99659.38;3554660;27;20046;-51
2021/04/01 02:30:42;;;;;;;81.78;47.25;;;;;;;8.57;91.67;99651.66;3551458;27;20308;-50
2021/04/01 02:32:23;;;;;;;85.25;45.60;;;;;;;8.59;91.50;99649.97;3554049;27;20427;-53
2021/04/01 02:34:04;;;;;;;77.43;45.22;;;;;;;8.60;91.59;99650.84;3551408;27;20043;-51
2021/04/01 02:35:46;;;;;;;80.30;42.90;;;;;;;8.62;91.78;99653.44;3552459;27;20707;-52
2021/04/01 02:37:27;;;;;;;76.95;42.55;;;;;;;8.64;91.73;99646.59;3553143;27;20507;-51
2021/04/01 02:39:09;;;;;;;78.00;41.72;;;;;;;8.66;91.50;99650.09;3553233;27;20070;-51
2021/04/01 02:40:52;;;;;;;71.18;39.58;;;;;;;8.68;91.52;99645.84;3554478;27;20461;-54
2021/04/01 02:42:33;;;;;;;64.03;37.73;;;;;;;8.71;91.58;99648.47;3551309;27;20122;-52
2021/04/01 02:44:14;;;;;;;73.28;39.03;;;;;;;8.73;91.79;99641.59;3554333;27;20306;-52
2021/04/01 02:45:56;;;;;;;63.55;36.33;;;;;;;8.75;91.57;99651.16;3551269;27;20043;-53
2021/04/01 02:47:38;;;;;;;62.05;34.42;;;;;;;8.78;91.67;99642.56;3553693;27;20137;-51
2021/04/01 02:49:19;;;;;;;60.53;35.97;;;;;;;8.81;91.70;99652.13;3554536;27;20107;-52
2021/04/01 02:51:01;;;;;;;64.95;37.15;;;;;;;8.83;91.45;99646.13;3550792;27;20475;-52
2021/04/01 02:52:43;;;;;;;65.50;35.85;;;;;;;8.85;91.40;99636.69;3554499;27;20516;-53
2021/04/01 02:54:24;;;;;;;69.82;36.60;;;;;;;8.88;91.16;99646.22;3552111;27;20047;-52
2021/04/01 02:56:07;;;;;;;65.10;34.92;;;;;;;8.89;91.11;99643.69;3553739;27;20085;-50
2021/04/01 02:57:49;;;;;;;60.65;34.03;;;;;;;8.90;90.89;99648.00;3551515;27;20057;-52
2021/04/01 02:59:30;;;;;;;59.63;32.05;;;;;;;8.92;91.09;99637.69;3551617;27;20046;-51
2021/04/01 03:01:11;;;;;;;63.70;35.03;;;;;;;8.94;90.68;99641.16;3553819;27;20054;-51
2021/04/01 03:02:55;;;;;;;63.67;35.28;;;;;;;8.96;90.96;99642.09;3550885;27;20039;-53
2021/04/01 03:04:38;;;;;;;64.70;35.70;;;;;;;8.98;90.85;99636.09;3554712;27;20047;-52
2021/04/01 03:06:20;;;;;;;56.10;30.02;;;;;;;9.00;90.54;99637.84;3552600;27;20185;-50
2021/04/01 03:08:02;;;;;;;62.35;34.15;;;;;;;9.02;90.65;99631.00;3553756;27;20050;-51
2021/04/01 03:09:43;;;;;;;63.25;35.75;;;;;;;9.03;90.57;99637.88;3551161;27;20054;-51
2021/04/01 03:11:25;;;;;;;62.83;34.42;;;;;;;9.03;90.48;99635.31;3553236;27;20043;-53
2021/04/01 03:13:06;;;;;;;63.83;34.67;;;;;;;9.05;90.27;99636.22;3550239;27;20207;-52
2021/04/01 03:14:48;;;;;;;61.38;33.67;;;;;;;9.06;90.33;99630.19;3550818;27;20137;-52
2021/04/01 03:16:29;;;;;;;67.20;36.25;;;;;;;9.06;90.09;99632.78;3554246;27;20396;-54
2021/04/01 03:18:10;;;;;;;62.72;34.55;;;;;;;9.06;90.04;99630.19;3550573;27;20046;-53
2021/04/01 03:19:52;;;;;;;57.28;31.80;;;;;;;9.06;90.21;99635.38;3553757;27;20502;-51
2021/04/01 03:21:33;;;;;;;60.80;34.95;;;;;;;9.06;90.19;99628.47;3551205;27;20054;-53
2021/04/01 03:23:15;;;;;;;64.05;34.53;;;;;;;9.05;90.09;99628.47;3550395;27;20058;-51
2021/04/01 03:24:56;;;;;;;45.85;30.52;;;;;;;9.05;90.17;99626.75;3553927;27;20139;-53
2021/04/01 03:26:39;;;;;;;62.60;33.75;;;;;;;9.07;90.29;99634.53;3552777;27;20054;-50
2021/04/01 03:28:21;;;;;;;56.90;33.10;;;;;;;9.08;90.51;99625.91;3554221;27;20043;-52
2021/04/01 03:30:06;;;;;;;69.07;35.42;;;;;;;9.08;89.90;99631.97;3550414;27;20088;-54
2021/04/01 03:31:47;;;;;;;61.78;35.20;;;;;;;9.09;90.08;99627.66;3553442;27;20069;-53
2021/04/01 03:33:28;;;;;;;58.42;32.58;;;;;;;9.10;90.26;99629.41;3551136;27;20054;-51
2021/04/01 03:35:12;;;;;;;62.45;32.97;;;;;;;9.11;90.13;99618.22;3550730;27;20054;-51
2021/04/01 03:36:54;;;;;;;68.88;35.45;;;;;;;9.13;90.19;99627.75;3553816;27;20099;-52
2021/04/01 03:38:35;;;;;;;55.22;31.98;;;;;;;9.15;90.06;99620.00;3550665;27;20047;-51
2021/04/01 03:40:16;;;;;;;50.25;30.73;;;;;;;9.15;89.82;99620.91;3554004;27;20050;-52
2021/04/01 03:41:59;;;;;;;62.70;34.80;;;;;;;9.14;89.76;99619.16;3550352;27;20046;-54
2021/04/01 03:43:41;;;;;;;62.45;36.15;;;;;;;9.16;89.79;99620.03;3553088;27;20054;-53
2021/04/01 03:45:22;;;;;;;59.15;33.97;;;;;;;9.13;89.66;99625.16;3551577;27;20050;-53
2021/04/01 03:47:06;;;;;;;59.83;34.58;;;;;;;9.13;89.56;99622.56;3552590;27;20525;-51
2021/04/01 03:48:47;;;;;;;64.47;35.42;;;;;;;9.11;89.54;99621.66;3552661;27;20054;-52
2021/04/01 03:50:29;;;;;;;61.38;34.25;;;;;;;9.08;89.28;99619.03;3552655;27;20042;-50
2021/04/01 03:52:10;;;;;;;65.90;34.95;;;;;;;9.06;89.56;99620.72;3554004;27;20079;-50
2021/04/01 03:53:51;;;;;;;68.75;35.58;;;;;;;9.04;89.28;99619.81;3550386;27;20085;-52
2021/04/01 03:55:39;;;;;;;59.47;34.03;;;;;;;9.01;89.63;99617.16;3553102;27;20058;-52
2021/04/01 03:57:22;;;;;;;59.42;34.53;;;;;;;8.98;89.54;99617.13;3551213;27;20078;-52
2021/04/01 03:59:06;;;;;;;61.38;35.05;;;;;;;8.96;89.72;99616.22;3550499;27;20046;-52
2021/04/01 04:00:52;;;;;;;52.35;28.17;;;;;;;8.95;89.75;99617.91;3553690;27;20054;-53
2021/04/01 04:02:42;;;;;;;57.25;32.28;;;;;;;8.94;89.68;99623.94;3550001;27;20038;-53
2021/04/01 04:04:32;;;;;;;61.42;34.40;;;;;;;8.93;89.72;99617.03;3553340;27;20059;-52
2021/04/01 04:06:21;;;;;;;56.17;32.20;;;;;;;8.91;89.76;99615.25;3551016;27;20054;-53
2021/04/01 04:10:11;;;;;;;63.63;34.28;;;;;;;8.93;90.03;99603.22;3508085;27;20129;-53
2021/04/01 04:11:56;;;;;;;66.85;35.78;;;;;;;8.97;90.17;99615.38;3551477;27;20088;-52
2021/04/01 04:13:44;;;;;;;64.03;35.80;;;;;;;9.00;90.06;99601.63;3549742;27;20053;-52
2021/04/01 04:15:26;;;;;;;69.10;35.72;;;;;;;9.03;90.37;99601.66;3552894;27;20073;-53
2021/04/01 04:17:07;;;;;;;61.30;33.80;;;;;;;9.09;89.95;99604.38;3549935;27;20051;-51
2021/04/01 04:18:49;;;;;;;67.15;34.55;;;;;;;9.18;89.90;99601.09;3553574;27;20627;-50
2021/04/01 04:20:30;;;;;;;60.17;32.95;;;;;;;9.25;89.92;99600.34;3549997;27;20500;-53
2021/04/01 04:22:11;;;;;;;66.25;34.42;;;;;;;9.32;89.51;99599.63;3552797;27;20047;-51
2021/04/01 04:23:53;;;;;;;56.90;32.88;;;;;;;9.40;89.23;99603.22;3550255;27;20479;-54
2021/04/01 04:25:35;;;;;;;64.07;35.47;;;;;;;9.48;89.06;99595.59;3551658;27;20081;-54
2021/04/01 04:27:32;;;;;;;57.17;33.65;;;;;;;9.54;88.66;99596.59;3550963;27;20396;-51
2021/04/01 04:29:14;;;;;;;60.28;33.55;;;;;;;9.63;87.92;99593.28;3549733;27;20046;-53
2021/04/01 04:30:55;;;;;;;63.55;35.00;;;;;;;9.67;87.79;99586.44;3553248;27;20046;-51
2021/04/01 04:32:37;;;;;;;56.55;31.38;;;;;;;9.71;87.38;99586.47;3550016;27;20050;-53
2021/04/01 04:34:18;;;;;;;59.30;31.52;;;;;;;9.77;87.43;99584.84;3551665;27;20059;-54
2021/04/01 04:36:00;;;;;;;50.10;30.55;;;;;;;9.80;87.23;99577.97;3554578;27;20134;-51
2021/04/01 04:37:41;;;;;;;56.28;31.65;;;;;;;9.84;86.89;99584.97;3550008;27;20047;-54
2021/04/01 04:39:22;;;;;;;58.92;33.65;;;;;;;9.87;86.93;99574.63;3553358;27;20081;-51
2021/04/01 04:41:04;;;;;;;60.72;33.88;;;;;;;9.89;86.77;99577.25;3549714;27;20103;-51
2021/04/01 04:42:46;;;;;;;58.60;32.22;;;;;;;9.96;86.57;99575.63;3553310;27;20053;-52
2021/04/01 04:44:28;;;;;;;60.38;32.85;;;;;;;9.99;86.39;99571.34;3550770;27;20427;-53
2021/04/01 04:46:09;;;;;;;51.60;30.98;;;;;;;10.03;86.44;99569.69;3551083;27;20499;-52
2021/04/01 04:47:51;;;;;;;62.83;33.97;;;;;;;10.05;85.84;99574.06;3551868;27;20081;-46
2021/04/01 04:49:32;;;;;;;53.75;32.50;;;;;;;10.09;85.78;99572.38;3549683;27;20419;-46
2021/04/01 04:51:14;;;;;;;54.30;31.55;;;;;;;10.13;85.88;99570.69;3553055;27;20096;-47
2021/04/01 04:52:55;;;;;;;63.00;33.30;;;;;;;10.18;85.72;99576.81;3549756;27;20053;-47
2021/04/01 04:54:37;;;;;;;69.60;36.30;;;;;;;10.20;85.44;99578.56;3553102;27;20047;-47
2021/04/01 04:56:21;;;;;;;62.38;33.65;;;;;;;10.25;85.33;99568.28;3549420;27;20141;-48
2021/04/01 04:58:07;;;;;;;62.40;34.35;;;;;;;10.28;84.82;99564.00;3550534;27;20518;-49
2021/04/01 05:05:50;;;;;;;52.90;31.90;;;;;;;10.56;83.67;99559.13;3497122;28;20051;-47
2021/04/01 05:07:32;;;;;;;59.03;30.58;;;;;;;10.62;83.35;99572.19;3545829;27;20046;-46
2021/04/01 05:09:13;;;;;;;53.00;30.10;;;;;;;10.67;82.81;99567.03;3552999;27;20453;-47
2021/04/01 05:10:55;;;;;;;54.70;31.08;;;;;;;10.73;82.54;99561.06;3551795;27;20050;-47
2021/04/01 05:12:36;;;;;;;53.92;31.42;;;;;;;10.77;82.27;99553.31;3550933;27;20506;-46
2021/04/01 05:14:18;;;;;;;58.90;32.38;;;;;;;10.83;82.42;99556.00;3550731;27;20061;-47
2021/04/01 05:16:00;;;;;;;59.58;32.63;;;;;;;10.87;82.29;99557.75;3551740;27;20073;-47
2021/04/01 05:17:41;;;;;;;49.88;28.27;;;;;;;10.94;82.11;99553.50;3553088;27;20046;-47
2021/04/01 05:19:23;;;;;;;48.85;28.40;;;;;;;10.98;81.75;99555.28;3549500;27;20050;-52
2021/04/01 05:21:06;;;;;;;47.40;29.38;;;;;;;11.02;81.37;99557.06;3552654;27;20042;-53
2021/04/01 05:22:50;;;;;;;51.13;29.48;;;;;;;11.05;81.11;99553.63;3549901;27;20147;-53
2021/04/01 05:24:32;;;;;;;58.83;31.23;;;;;;;11.10;81.32;99556.25;3552275;27;20099;-46
2021/04/01 05:26:44;;;;;;;55.13;30.40;;;;;;;11.12;80.70;99551.94;3552735;27;20054;-45
2021/04/01 05:28:30;;;;;;;48.97;27.63;;;;;;;11.19;80.86;99552.00;3551422;27;20446;-47
2021/04/01 05:30:24;;;;;;;52.58;29.50;;;;;;;11.27;80.82;99548.63;3550719;27;20077;-47
2021/04/01 05:32:07;;;;;;;50.08;28.90;;;;;;;11.30;79.95;99556.44;3551287;27;20050;-47
2021/04/01 05:33:50;;;;;;;51.57;29.93;;;;;;;11.32;80.13;99549.56;3549221;27;20530;-46
2021/04/01 05:35:31;;;;;;;52.83;30.00;;;;;;;11.32;79.98;99549.56;3538488;28;20782;-46
2021/04/01 05:37:13;;;;;;;53.72;30.98;;;;;;;11.36;79.59;99551.31;3545458;27;20084;-46
2021/04/01 05:38:55;;;;;;;48.65;27.08;;;;;;;11.41;80.02;99544.44;3552675;27;20077;-46
2021/04/01 05:40:37;;;;;;;53.33;29.85;;;;;;;11.48;79.24;99558.34;3548734;27;20057;-45
2021/04/01 05:42:21;;;;;;;49.42;28.40;;;;;;;11.52;79.21;99550.59;3550452;27;20509;-46
2021/04/01 05:44:07;;;;;;;53.00;28.77;;;;;;;11.57;78.76;99545.44;3552354;27;20051;-47
2021/04/01 05:45:50;;;;;;;50.05;29.17;;;;;;;11.59;79.05;99542.00;3549702;27;20828;-47
2021/04/01 05:47:36;;;;;;;49.80;29.45;;;;;;;11.68;78.58;99543.78;3552526;27;20046;-46
2021/04/01 05:51:39;;;;;;;53.33;29.13;;;;;;;11.75;77.84;99544.72;3549331;27;20050;-47
2021/04/01 05:57:51;;;;;;;51.13;29.02;;;;;;;11.93;77.99;99528.38;3548962;27;20042;-47
2021/04/01 06:00:04;;;;;;;48.55;26.42;;;;;;;12.00;77.45;99533.59;3552458;27;20503;-47
2021/04/01 06:03:59;;;;;;;48.70;28.13;;;;;;;12.12;76.20;99537.13;3544735;27;20503;-46
2021/04/01 06:05:43;;;;;;;44.05;24.08;;;;;;;12.14;76.76;99533.66;3550522;27;20050;-46
2021/04/01 06:07:32;;;;;;;46.33;26.90;;;;;;;12.14;76.51;99525.00;3552365;27;20058;-47
2021/04/01 06:09:20;;;;;;;53.17;25.10;;;;;;;12.11;76.50;99533.66;3549955;27;20426;-46
2021/04/01 06:11:02;;;;;;;53.50;29.13;;;;;;;12.07;76.69;99518.03;3552223;27;20454;-47
2021/04/01 06:12:44;;;;;;;46.95;27.95;;;;;;;12.10;76.81;99525.84;3549826;27;20423;-47
2021/04/01 06:14:56;;;;;;;40.00;22.33;;;;;;;12.24;76.90;99524.19;3550434;27;20059;-46
2021/04/01 06:16:39;;;;;;;52.83;27.00;;;;;;;12.33;76.36;99523.34;3553148;27;20583;-47
2021/04/01 06:18:22;;;;;;;48.25;26.30;;;;;;;12.43;76.04;99525.13;3551052;27;20081;-47
2021/04/01 06:20:07;;;;;;;43.88;24.55;;;;;;;12.55;75.14;99525.16;3552210;27;20061;-47
2021/04/01 06:21:49;;;;;;;47.08;25.67;;;;;;;12.67;75.05;99520.88;3548700;27;20416;-48
2021/04/01 06:23:31;;;;;;;45.78;25.50;;;;;;;12.71;74.78;99520.00;3550327;27;20053;-48
2021/04/01 06:25:15;;;;;;;50.75;27.40;;;;;;;12.68;74.55;99520.88;3551013;27;20047;-48
2021/04/01 06:27:05;;;;;;;52.88;28.25;;;;;;;12.78;74.56;99513.94;3548861;27;20071;-46
2021/04/01 06:28:58;;;;;;;45.95;27.25;;;;;;;12.86;74.63;99516.56;3538045;28;20050;-48
2021/04/01 06:30:47;;;;;;;44.15;26.58;;;;;;;12.95;73.86;99519.22;3547734;27;20070;-47
2021/04/01 06:32:28;;;;;;;46.05;24.73;;;;;;;12.97;73.36;99524.44;3551094;27;20075;-47
2021/04/01 06:34:11;;;;;;;45.63;27.45;;;;;;;12.99;73.57;99514.91;3552965;27;20051;-47
2021/04/01 06:35:56;;;;;;;42.25;25.73;;;;;;;13.05;73.67;99515.78;3548445;27;20067;-48
2021/04/01 06:37:55;;;;;;;37.67;23.88;;;;;;;13.17;72.91;99512.28;3537923;28;20466;-49
2021/04/01 06:39:36;;;;;;;38.50;22.73;;;;;;;13.18;72.37;99514.06;3548014;27;20247;-48
2021/04/01 06:41:21;;;;;;;43.88;25.80;;;;;;;13.13;72.37;99511.44;3550393;27;20047;-48
2021/04/01 06:43:09;;;;;;;42.22;23.50;;;;;;;13.17;72.64;99503.63;3552024;27;20050;-47
2021/04/01 06:44:53;;;;;;;44.35;26.60;;;;;;;13.22;72.25;99507.97;3550634;27;20050;-47
2021/04/01 06:46:42;;;;;;;40.10;23.27;;;;;;;13.27;71.98;99507.97;3552298;27;20053;-47
2021/04/01 06:48:51;;;;;;;50.65;26.33;;;;;;;13.33;72.28;99505.34;3549128;27;20090;-47
2021/04/01 06:50:34;;;;;;;49.65;22.15;;;;;;;13.38;71.88;99503.63;3550592;27;20388;-48
2021/04/01 06:52:20;;;;;;;46.30;24.05;;;;;;;13.45;72.12;99499.28;3551826;27;20050;-48
2021/04/01 06:54:09;;;;;;;36.45;21.52;;;;;;;13.52;71.04;99503.63;3548493;27;20539;-47
2021/04/01 06:56:19;;;;;;;41.72;23.55;;;;;;;13.55;71.26;99498.41;3549006;27;20054;-48
2021/04/01 06:58:13;;;;;;;43.85;26.08;;;;;;;13.65;71.10;99496.63;3551700;27;20419;-48
2021/04/01 07:00:22;;;;;;;45.80;25.33;;;;;;;13.80;70.87;99495.75;3550367;27;20091;-49
2021/04/01 07:02:25;;;;;;;40.17;24.20;;;;;;;13.92;69.96;99497.44;3550706;27;20547;-48
2021/04/01 07:04:07;;;;;;;40.50;23.80;;;;;;;14.03;69.95;99491.34;3554316;27;20521;-49
2021/04/01 07:05:52;;;;;;;38.75;24.38;;;;;;;14.09;68.99;99496.53;3550820;27;20047;-49
2021/04/01 07:07:43;;;;;;;36.72;21.15;;;;;;;14.21;69.73;99487.78;3553889;27;20486;-47
2021/04/01 07:09:35;;;;;;;37.67;21.60;;;;;;;14.30;68.89;99492.09;3552097;27;20053;-48
2021/04/01 07:11:30;;;;;;;45.00;25.05;;;;;;;14.33;69.19;99492.13;3550635;27;20450;-47
2021/04/01 07:13:17;;;;;;;41.45;23.10;;;;;;;14.34;68.52;99479.94;3552758;27;20499;-49
2021/04/01 07:15:22;;;;;;;43.35;24.00;;;;;;;14.49;68.41;99482.47;3552654;27;20503;-48
2021/04/01 07:17:10;;;;;;;41.72;24.50;;;;;;;14.61;68.00;99478.94;3551781;27;20465;-48
2021/04/01 07:21:09;;;;;;;35.88;20.38;;;;;;;14.90;66.56;99490.94;3550758;27;20612;-48
2021/04/01 07:31:06;;;;;;;35.17;19.23;;;;;;;15.11;65.33;99482.09;3553039;27;20053;-47
2021/04/01 07:35:02;;;;;;;34.15;19.83;;;;;;;15.22;65.11;99467.16;3549127;27;20518;-50
2021/04/01 07:47:04;;;;;;;24.88;15.57;;;;;;;15.81;63.59;99457.06;3544238;27;20042;-47
2021/04/01 07:48:48;;;;;;;28.88;17.73;;;;;;;15.84;63.15;99458.75;3551910;27;20453;-48
2021/04/01 07:50:37;;;;;;;32.00;18.10;;;;;;;15.92;63.29;99464.78;3552498;27;20046;-47
2021/04/01 07:52:21;;;;;;;29.20;17.50;;;;;;;16.01;62.74;99455.97;3550321;27;20082;-53
2021/04/01 07:54:04;;;;;;;24.38;15.80;;;;;;;16.08;62.62;99455.84;3553746;27;20086;-52
2021/04/01 07:55:58;;;;;;;27.67;16.77;;;;;;;16.16;62.94;99453.16;3550187;27;20047;-51
2021/04/01 07:59:52;;;;;;;28.35;16.90;;;;;;;16.18;61.93;99446.16;3517159;28;20499;-53
2021/04/01 08:01:47;;;;;;;24.13;15.15;;;;;;;16.17;62.78;99460.13;3547225;27;20070;-53
2021/04/01 08:05:39;;;;;;;25.17;16.50;;;;;;;16.35;62.72;99443.28;3545043;27;20054;-54
2021/04/01 08:07:22;;;;;;;30.80;17.17;;;;;;;16.47;62.04;99445.75;3556831;27;20051;-50
2021/04/01 08:09:09;;;;;;;25.40;16.77;;;;;;;16.58;61.47;99437.72;3553420;27;20047;-47
2021/04/01 08:11:01;;;;;;;23.90;15.77;;;;;;;16.79;61.89;99433.97;3550320;27;20534;-47
2021/04/01 08:12:49;;;;;;;28.17;15.77;;;;;;;17.02;60.82;99435.34;3550602;27;20051;-47
2021/04/01 08:14:32;;;;;;;24.13;15.82;;;;;;;17.20;59.60;99432.44;3551852;27;20140;-48
2021/04/01 08:16:17;;;;;;;25.95;14.40;;;;;;;17.19;58.85;99430.69;3550041;27;20141;-47
2021/04/01 08:18:06;;;;;;;22.92;14.68;;;;;;;17.14;58.85;99429.06;3553461;27;20047;-48
2021/04/01 08:19:51;;;;;;;27.15;16.05;;;;;;;17.07;58.98;99423.91;3550428;27;20046;-47
2021/04/01 08:21:54;;;;;;;25.33;15.15;;;;;;;17.07;59.26;99420.44;3550725;27;20047;-48
2021/04/01 08:24:03;;;;;;;26.65;15.48;;;;;;;17.13;58.76;99422.06;3539099;28;20116;-49
2021/04/01 08:26:16;;;;;;;25.88;16.42;;;;;;;17.28;58.88;99406.94;3551464;27;20054;-46
2021/04/01 08:28:30;;;;;;;26.20;16.55;;;;;;;17.51;58.29;99410.03;3550832;27;20046;-47
2021/04/01 08:33:11;;;;;;;26.63;17.40;;;;;;;17.73;58.27;99394.75;3539334;28;20278;-48
2021/04/01 08:35:14;;;;;;;27.05;16.17;;;;;;;17.78;56.19;99396.41;3552453;27;20046;-48
2021/04/01 08:37:17;;;;;;;23.02;15.48;;;;;;;17.74;56.98;99399.09;3549769;27;20059;-47
2021/04/01 08:39:21;;;;;;;21.38;12.25;;;;;;;17.74;57.46;99391.22;3550471;27;20051;-47
2021/04/01 08:41:44;;;;;;;28.98;16.90;;;;;;;17.61;57.01;99394.09;3538878;28;20193;-48
2021/04/01 08:44:15;;;;;;;26.10;17.52;;;;;;;17.58;57.40;99391.53;3553604;27;20098;-48
2021/04/01 08:46:38;;;;;;;29.92;17.42;;;;;;;17.58;57.67;99388.91;3549484;27;20050;-48
2021/04/01 08:48:46;;;;;;;29.48;18.25;;;;;;;17.59;57.13;99385.41;3549554;27;20543;-48
2021/04/01 08:50:32;;;;;;;37.67;17.63;;;;;;;17.67;57.12;99388.72;3552778;27;20051;-50
2021/04/01 08:52:48;;;;;;;27.20;16.00;;;;;;;17.78;56.88;99379.78;3551016;27;20050;-47
2021/04/01 08:54:35;;;;;;;25.27;15.88;;;;;;;17.77;56.90;99380.69;3549403;27;20416;-48